Automated Weather Station

Magsaysay, Infanta, Quezon


Readings

as of November 11, 2016 04:01 PM
Wind Speed
3.40 mm
Rainfall Amount
0.14 mm
Rainfall Intensity
11.30 mm
Air Temperature
mm
Wind Direction
96.00 mm
Air Humidity
97.70 mm

Data Source: PREDICT (Advanced Science and Technology Institute)

12 HOUR DATA

PREVIOUS DATA

From
To
DateTime Wind Speed Rain Amount Rain Intensity Air Temperature Air Pressure Wind Direction Air Humidity
November 11, 2016 04:01 PM 11.00 0.00 mm 0.00 20.80 928.03 22.00 98.60
November 11, 2016 03:01 PM 11.80 0.00 mm 0.00 21.70 927.90 2.00 97.30
November 11, 2016 02:01 PM 19.30 0.00 mm 0.00 21.80 927.63 27.00 96.90
November 11, 2016 01:01 PM 10.70 0.00 mm 0.00 22.10 927.63 32.00 94.20
November 11, 2016 12:01 PM 15.30 0.00 mm 0.00 20.90 928.43 76.00 98.20
November 11, 2016 11:01 AM 9.10 0.00 mm 0.00 21.20 929.23 74.00 98.20
November 11, 2016 10:01 AM 7.50 0.00 mm 0.00 21.70 930.03 26.00 98.20
November 11, 2016 09:01 AM 6.10 0.00 mm 0.00 22.30 930.30 66.00 94.60
November 11, 2016 08:01 AM 13.10 0.00 mm 0.00 22.10 930.30 69.00 91.00
November 11, 2016 03:01 AM 7.90 0.00 mm 0.00 20.40 928.70 15.00 96.30
November 11, 2016 02:01 AM 8.60 0.00 mm 0.00 20.40 928.70 67.00 96.40
November 11, 2016 01:01 AM 3.20 0.00 mm 0.00 20.50 929.63 107.00 92.00
November 11, 2016 12:01 AM 8.80 0.00 mm 0.00 20.70 930.03 75.00 94.40
November 10, 2016 11:01 AM 9.70 0.00 mm 0.00 21.20 930.43 15.00 94.80
November 10, 2016 10:01 AM 2.10 0.00 mm 0.00 21.90 931.90 42.00 90.80
November 10, 2016 09:01 AM 8.70 0.00 mm 0.00 23.00 932.03 52.00 87.70
November 10, 2016 08:01 AM 4.90 0.00 mm 0.00 21.70 930.97 57.00 95.00
November 10, 2016 07:01 AM 4.50 0.00 mm 0.00 21.00 930.30 36.00 95.20
November 10, 2016 05:01 AM 9.10 0.00 mm 0.00 20.40 929.37 215.00 98.10
November 10, 2016 04:02 AM 8.20 0.00 mm 0.00 20.10 928.83 30.00 97.10
November 10, 2016 03:01 AM 5.60 0.00 mm 0.00 19.70 928.57 30.00 96.50
November 10, 2016 02:01 AM 6.30 0.00 mm 0.00 20.10 928.43 14.00 97.30
November 10, 2016 01:02 AM 5.30 0.00 mm 0.00 20.30 928.97 59.00 95.30
November 10, 2016 12:01 AM 9.00 0.00 mm 0.00 20.60 929.63 40.00 93.90
November 09, 2016 09:03 PM 5.20 0.00 mm 0.00 20.30 930.83 49.00 94.70
November 09, 2016 08:01 PM 5.60 0.00 mm 0.00 20.30 930.83 338.00 94.60
November 09, 2016 07:01 PM 8.80 0.00 mm 0.00 20.30 930.70 30.00 94.90
November 09, 2016 06:01 PM 2.50 0.00 mm 0.00 20.20 930.17 42.00 94.30
November 09, 2016 05:01 PM 6.30 0.00 mm 0.00 20.40 929.77 107.00 92.50
November 09, 2016 04:01 PM 8.20 0.00 mm 0.00 20.80 929.50 0.00 87.20